LFLN/SYT METAR and TAF weather

Enter ICAO airport designator
Station Type Date Time Source
LFLN METAR 2020/07/11 05:00 UTC NOAA

LFLN 110500Z AUTO 27001KT CAVOK 14/11 Q1022


Station Type Date Time Source
LFLN Decoded METAR 2020/07/11 05:00 UTC NOAA

Saint-Yan, France (LFLN) 46-25N 004-01E 244M
Jul 11, 2020 - 01:00 AM EDT / 2020.07.11 0500 UTC
Wind: from the W (270 degrees) at 1 MPH (1 KT):0
Visibility: greater than 7 mile(s):0
Temperature: 57 F (14 C)
Dew Point: 51 F (11 C)
Relative Humidity: 82%
Pressure (altimeter): 30.18 in. Hg (1022 hPa)
ob: LFLN 110500Z AUTO 27001KT CAVOK 14/11 Q1022
cycle: 5

Station Type Date Time Source
LFLN TAF UTC NOAA

Error!

Example: see airport list